createdAt,value
2022-09-30T00:00:48.277Z,98121.09
2022-09-30T00:03:18.440Z,98115.22
2022-09-30T00:05:47.292Z,98117.38
2022-09-30T00:08:15.951Z,98119.25
2022-09-30T00:10:44.876Z,98130.81
2022-09-30T00:13:13.630Z,98128.72
2022-09-30T00:15:42.254Z,98120.84
2022-09-30T00:18:10.978Z,98122.09
2022-09-30T00:20:41.128Z,98124.38
2022-09-30T00:23:09.835Z,98124.41
2022-09-30T00:25:38.547Z,98123.94
2022-09-30T00:28:08.067Z,98127.16
2022-09-30T00:30:36.869Z,98125.47
2022-09-30T00:33:05.649Z,98127.34
2022-09-30T00:35:34.443Z,98128.06
2022-09-30T00:38:04.608Z,98132.84
2022-09-30T00:40:33.839Z,98135.53
2022-09-30T00:43:02.506Z,98142.22
2022-09-30T00:45:34.485Z,98137.47
2022-09-30T00:48:10.986Z,98141.03
2022-09-30T00:50:45.411Z,98145.31
2022-09-30T00:53:21.586Z,98146.44
2022-09-30T00:55:58.851Z,98150.72
2022-09-30T00:58:35.148Z,98147.78
2022-09-30T01:01:05.264Z,98142.94
2022-09-30T01:03:37.954Z,98140.13
2022-09-30T01:06:07.852Z,98134.22
2022-09-30T01:08:41.611Z,98135.84
2022-09-30T01:11:10.899Z,98140.88
2022-09-30T01:13:42.944Z,98141.84
2022-09-30T01:16:31.571Z,98151.22
2022-09-30T01:19:37.053Z,98148.31
2022-09-30T01:22:26.187Z,98148.88
2022-09-30T01:25:45.765Z,98151.31
2022-09-30T01:29:20.402Z,98149.13
2022-09-30T01:32:03.873Z,98143.00
2022-09-30T01:34:47.063Z,98156.34
2022-09-30T01:37:33.278Z,98152.53
2022-09-30T01:40:09.244Z,98151.41
2022-09-30T01:42:49.640Z,98156.25
2022-09-30T01:45:26.872Z,98146.13
2022-09-30T01:48:04.711Z,98158.50
2022-09-30T01:50:48.221Z,98157.44
2022-09-30T01:53:26.304Z,98156.56
2022-09-30T01:56:01.985Z,98169.03
2022-09-30T01:58:41.963Z,98171.47
2022-09-30T02:01:20.404Z,98162.16
2022-09-30T02:03:57.047Z,98169.38
2022-09-30T02:06:33.502Z,98163.22
2022-09-30T02:09:08.580Z,98177.63
2022-09-30T02:11:40.367Z,98169.53
2022-09-30T02:14:18.199Z,98183.16
2022-09-30T02:16:54.046Z,98180.56
2022-09-30T02:19:32.081Z,98184.66
2022-09-30T02:22:07.187Z,98189.75
2022-09-30T02:24:38.255Z,98183.13
2022-09-30T02:27:20.923Z,98182.63
2022-09-30T02:29:57.042Z,98187.41
2022-09-30T02:32:32.039Z,98197.59
2022-09-30T02:35:10.317Z,98197.53
2022-09-30T02:37:46.641Z,98197.06
2022-09-30T02:40:25.694Z,98197.34
2022-09-30T02:42:54.713Z,98192.50
2022-09-30T02:45:25.715Z,98190.09
2022-09-30T02:48:27.715Z,98199.16
2022-09-30T02:51:06.181Z,98198.59
2022-09-30T02:53:44.424Z,98199.16
2022-09-30T02:56:27.221Z,98197.59
2022-09-30T02:58:59.145Z,98194.94
2022-09-30T03:01:27.963Z,98192.00
2022-09-30T03:04:01.015Z,98193.41
2022-09-30T03:06:32.229Z,98194.22
2022-09-30T03:09:01.460Z,98195.44
2022-09-30T03:11:32.237Z,98189.22
2022-09-30T03:14:38.751Z,98199.56
2022-09-30T03:17:39.018Z,98198.41
2022-09-30T03:20:40.641Z,98201.25
2022-09-30T03:23:43.022Z,98211.13
2022-09-30T03:26:31.515Z,98210.56
2022-09-30T03:29:14.699Z,98220.75
2022-09-30T03:32:09.182Z,98225.88
2022-09-30T03:34:57.882Z,98242.22
2022-09-30T03:37:36.743Z,98240.94
2022-09-30T03:40:18.867Z,98244.97
2022-09-30T03:42:56.399Z,98239.63
2022-09-30T03:45:35.214Z,98242.28
2022-09-30T03:48:10.073Z,98244.97
2022-09-30T03:50:42.462Z,98244.97
2022-09-30T03:53:13.434Z,98238.47
2022-09-30T03:55:50.339Z,98237.38
2022-09-30T03:58:23.502Z,98230.47
2022-09-30T04:00:57.233Z,98240.94
2022-09-30T04:03:27.942Z,98245.13
2022-09-30T04:05:57.288Z,98251.09
2022-09-30T04:08:29.864Z,98249.19
2022-09-30T04:11:03.510Z,98252.00
2022-09-30T04:13:32.289Z,98260.31
2022-09-30T04:16:01.722Z,98255.31
2022-09-30T04:18:33.976Z,98252.16
2022-09-30T04:21:07.364Z,98252.97
2022-09-30T04:23:37.702Z,98255.78
2022-09-30T04:26:13.425Z,98258.06
2022-09-30T04:28:45.072Z,98268.91
2022-09-30T04:31:17.328Z,98261.13
2022-09-30T04:33:49.434Z,98264.03
2022-09-30T04:36:20.313Z,98269.75
2022-09-30T04:38:52.628Z,98265.38
2022-09-30T04:41:22.859Z,98277.91
2022-09-30T04:43:51.578Z,98280.81
2022-09-30T04:46:22.712Z,98281.19
2022-09-30T04:48:51.979Z,98280.63
2022-09-30T04:51:22.707Z,98277.38
2022-09-30T04:53:51.973Z,98281.53
2022-09-30T04:56:22.975Z,98281.28
2022-09-30T04:58:51.581Z,98283.84
2022-09-30T05:01:21.296Z,98278.63
2022-09-30T05:03:50.803Z,98282.38
2022-09-30T05:06:19.739Z,98277.28
2022-09-30T05:08:48.425Z,98289.72
2022-09-30T05:11:19.257Z,98288.09
2022-09-30T05:13:51.120Z,98301.31
2022-09-30T05:16:20.179Z,98303.41
2022-09-30T05:18:49.595Z,98310.03
2022-09-30T05:21:20.912Z,98317.78
2022-09-30T05:23:49.902Z,98319.31
2022-09-30T05:26:18.574Z,98327.19
2022-09-30T05:28:56.010Z,98338.31
2022-09-30T05:31:24.662Z,98336.94
2022-09-30T05:33:57.895Z,98334.38
2022-09-30T05:36:27.050Z,98334.16
2022-09-30T05:38:56.012Z,98339.72
2022-09-30T05:41:24.776Z,98337.50
2022-09-30T05:43:54.787Z,98336.94
2022-09-30T05:46:23.474Z,98352.00
2022-09-30T05:48:55.499Z,98350.25
2022-09-30T05:51:24.532Z,98354.19
2022-09-30T05:53:53.210Z,98351.16
2022-09-30T05:56:23.851Z,98353.94
2022-09-30T05:58:52.411Z,98351.59
2022-09-30T06:01:23.506Z,98352.16
2022-09-30T06:03:52.277Z,98354.19
2022-09-30T06:06:21.321Z,98359.16
2022-09-30T06:08:50.330Z,98359.06
2022-09-30T06:11:25.115Z,98359.06
2022-09-30T06:13:53.829Z,98361.94
2022-09-30T06:16:25.243Z,98368.31
2022-09-30T06:18:54.449Z,98364.94
2022-09-30T06:21:23.620Z,98368.50
2022-09-30T06:23:52.272Z,98377.91
2022-09-30T06:26:20.955Z,98375.00
2022-09-30T06:28:50.348Z,98381.47
2022-09-30T06:31:19.349Z,98384.25
2022-09-30T06:33:49.441Z,98383.78
2022-09-30T06:36:18.524Z,98376.44
2022-09-30T06:38:51.373Z,98388.03
2022-09-30T06:41:20.000Z,98392.19
2022-09-30T06:43:53.914Z,98397.88
2022-09-30T06:46:30.847Z,98388.91
2022-09-30T06:49:12.678Z,98391.44
2022-09-30T06:51:42.299Z,98393.94
2022-09-30T06:54:11.765Z,98388.47
2022-09-30T06:56:40.663Z,98394.94
2022-09-30T06:59:09.389Z,98399.34
2022-09-30T07:01:38.992Z,98406.38
2022-09-30T07:04:11.290Z,98414.47
2022-09-30T07:06:41.625Z,98415.06
2022-09-30T07:09:12.548Z,98410.84
2022-09-30T07:11:41.300Z,98416.28
2022-09-30T07:14:13.435Z,98417.16
2022-09-30T07:16:42.166Z,98410.53
2022-09-30T07:19:14.709Z,98418.06
2022-09-30T07:21:43.355Z,98418.97
2022-09-30T07:24:12.042Z,98417.19
2022-09-30T07:26:40.938Z,98419.34
2022-09-30T07:29:09.584Z,98425.38
2022-09-30T07:31:38.298Z,98420.91
2022-09-30T07:34:09.207Z,98429.81
2022-09-30T07:36:41.829Z,98424.78
2022-09-30T07:39:12.280Z,98415.53
2022-09-30T07:41:42.029Z,98416.75
2022-09-30T07:44:15.085Z,98426.56
2022-09-30T07:46:46.048Z,98430.44
2022-09-30T07:49:25.630Z,98428.44
2022-09-30T07:51:58.912Z,98428.59
2022-09-30T07:54:30.723Z,98436.00
2022-09-30T07:57:10.468Z,98431.09
2022-09-30T07:59:42.366Z,98435.00
2022-09-30T08:02:17.448Z,98437.28
2022-09-30T08:04:47.182Z,98441.75
2022-09-30T08:07:19.594Z,98446.66
2022-09-30T08:09:48.386Z,98445.69
2022-09-30T08:12:17.182Z,98446.59
2022-09-30T08:14:46.256Z,98442.63
2022-09-30T08:17:15.564Z,98444.06
2022-09-30T08:19:44.987Z,98445.78
2022-09-30T08:22:14.236Z,98456.09
2022-09-30T08:24:44.426Z,98450.56
2022-09-30T08:27:13.152Z,98453.28
2022-09-30T08:30:00.134Z,98451.94
2022-09-30T08:32:32.023Z,98455.00
2022-09-30T08:35:00.987Z,98458.53
2022-09-30T08:37:29.692Z,98464.22
2022-09-30T08:39:59.669Z,98449.13
2022-09-30T08:42:52.974Z,98454.53
2022-09-30T08:45:38.716Z,98454.28
2022-09-30T08:48:28.893Z,98456.44
2022-09-30T08:51:13.394Z,98461.38
2022-09-30T08:53:48.179Z,98451.50
2022-09-30T08:56:25.247Z,98451.00
2022-09-30T08:58:59.936Z,98446.22
2022-09-30T09:01:35.269Z,98441.47
2022-09-30T09:04:07.815Z,98446.34
2022-09-30T09:06:55.085Z,98456.81
2022-09-30T09:10:01.887Z,98470.00
2022-09-30T09:12:48.228Z,98474.84
2022-09-30T09:15:32.065Z,98470.53
2022-09-30T09:18:43.284Z,98472.44
2022-09-30T09:21:25.177Z,98475.66
2022-09-30T09:23:58.806Z,98475.34
2022-09-30T09:26:32.123Z,98471.25
2022-09-30T09:29:29.045Z,98478.41
2022-09-30T09:31:59.763Z,98481.56
2022-09-30T09:34:30.425Z,98469.03
2022-09-30T09:37:16.491Z,98465.41
2022-09-30T09:40:11.903Z,98475.00
2022-09-30T09:43:06.457Z,98458.72
2022-09-30T09:45:43.552Z,98465.31
2022-09-30T09:48:17.562Z,98462.44
2022-09-30T09:51:01.479Z,98473.16
2022-09-30T09:53:46.507Z,98469.19
2022-09-30T09:56:22.076Z,98472.88
2022-09-30T09:59:13.814Z,98463.50
2022-09-30T10:01:48.098Z,98470.84
2022-09-30T10:04:24.450Z,98466.31
2022-09-30T10:07:00.143Z,98456.22
2022-09-30T10:09:33.555Z,98457.53
2022-09-30T10:12:54.181Z,98459.56
2022-09-30T10:15:26.527Z,98455.84
2022-09-30T10:18:00.950Z,98456.22
2022-09-30T10:20:38.278Z,98462.94
2022-09-30T10:23:20.321Z,98466.84
2022-09-30T10:26:20.486Z,98463.25
2022-09-30T10:28:53.271Z,98460.75
2022-09-30T10:31:32.221Z,98469.16
2022-09-30T10:34:13.274Z,98464.53
2022-09-30T10:36:44.885Z,98469.31
2022-09-30T10:39:25.056Z,98467.38
2022-09-30T10:42:03.628Z,98474.38
2022-09-30T10:44:46.184Z,98464.13
2022-09-30T10:47:19.475Z,98469.03
2022-09-30T10:49:54.495Z,98464.50
2022-09-30T10:52:27.705Z,98457.78
2022-09-30T10:54:58.883Z,98458.34
2022-09-30T10:57:31.010Z,98464.03
2022-09-30T11:00:06.959Z,98472.66
2022-09-30T11:02:58.777Z,98481.81
2022-09-30T11:05:33.242Z,98476.19
2022-09-30T11:08:14.632Z,98484.56
2022-09-30T11:10:55.011Z,98482.41
2022-09-30T11:13:36.948Z,98475.38
2022-09-30T11:16:21.112Z,98473.25
2022-09-30T11:18:57.419Z,98471.06
2022-09-30T11:21:33.110Z,98470.00
2022-09-30T11:24:21.566Z,98472.69
2022-09-30T11:27:04.458Z,98470.00
2022-09-30T11:30:00.963Z,98474.03
2022-09-30T11:32:52.227Z,98469.72
2022-09-30T11:39:59.331Z,98470.53
2022-09-30T11:42:41.299Z,98472.69
2022-09-30T11:45:30.858Z,98465.13
2022-09-30T11:48:40.475Z,98462.97
2022-09-30T11:51:24.874Z,98459.75
2022-09-30T11:54:08.018Z,98455.16
2022-09-30T11:56:50.944Z,98459.16
2022-09-30T11:59:28.033Z,98452.66
2022-09-30T12:02:03.087Z,98455.31
2022-09-30T12:04:40.727Z,98457.16
2022-09-30T12:07:19.340Z,98453.34
2022-09-30T12:09:54.725Z,98457.41
2022-09-30T12:12:25.154Z,98459.56
2022-09-30T12:14:59.112Z,98454.16
2022-09-30T12:17:38.787Z,98451.75
2022-09-30T12:20:18.054Z,98454.47
2022-09-30T12:22:49.468Z,98455.31
2022-09-30T12:25:24.123Z,98453.97
2022-09-30T12:28:27.753Z,98453.16
2022-09-30T12:31:24.150Z,98458.03
2022-09-30T12:34:13.201Z,98445.63
2022-09-30T12:37:24.644Z,98447.22
2022-09-30T12:40:24.480Z,98449.88
2022-09-30T12:43:39.491Z,98454.72
2022-09-30T12:46:43.965Z,98452.56
2022-09-30T12:49:20.116Z,98445.84
2022-09-30T12:51:56.047Z,98447.22
2022-09-30T12:54:32.398Z,98448.84
2022-09-30T12:57:09.395Z,98449.38
2022-09-30T12:59:55.773Z,98448.56
2022-09-30T13:02:38.704Z,98443.97
2022-09-30T13:05:48.467Z,98436.97
2022-09-30T13:08:46.504Z,98431.00
2022-09-30T13:11:42.425Z,98435.59
2022-09-30T13:14:33.180Z,98429.94
2022-09-30T13:17:27.062Z,98429.13
2022-09-30T13:19:58.792Z,98432.88
2022-09-30T13:22:58.449Z,98438.03
2022-09-30T13:25:28.842Z,98447.19
2022-09-30T13:28:30.829Z,98453.34
2022-09-30T13:31:19.940Z,98454.72
2022-09-30T13:34:12.363Z,98460.13
2022-09-30T13:36:43.698Z,98463.34
2022-09-30T13:39:27.318Z,98461.19
2022-09-30T13:42:10.063Z,98451.47
2022-09-30T13:45:01.206Z,98456.84
2022-09-30T13:47:39.150Z,98464.41
2022-09-30T13:50:20.909Z,98463.03
2022-09-30T13:52:55.844Z,98470.88
2022-09-30T13:55:35.147Z,98469.22
2022-09-30T13:58:32.165Z,98476.78
2022-09-30T14:01:45.123Z,98473.00
2022-09-30T14:04:51.973Z,98475.41
2022-09-30T14:07:42.401Z,98483.78
2022-09-30T14:10:35.807Z,98485.38
2022-09-30T14:13:34.077Z,98477.81
2022-09-30T14:16:58.326Z,98488.06
2022-09-30T14:20:05.506Z,98475.41
2022-09-30T14:22:43.341Z,98472.19
2022-09-30T14:25:19.225Z,98464.69
2022-09-30T14:28:09.656Z,98470.88
2022-09-30T14:31:03.182Z,98466.03
2022-09-30T14:33:34.487Z,98464.94
2022-09-30T14:36:09.480Z,98465.81
2022-09-30T14:38:41.147Z,98472.03
2022-09-30T14:41:21.375Z,98471.50
2022-09-30T14:43:57.996Z,98474.50
2022-09-30T14:46:36.974Z,98478.53
2022-09-30T14:49:10.253Z,98484.50
2022-09-30T14:51:43.767Z,98480.44
2022-09-30T14:54:23.922Z,98480.72
2022-09-30T14:56:54.801Z,98485.31
2022-09-30T14:59:27.296Z,98485.06
2022-09-30T15:02:00.834Z,98492.63
2022-09-30T15:04:32.559Z,98486.69
2022-09-30T15:07:04.530Z,98485.63
2022-09-30T15:09:37.845Z,98482.41
2022-09-30T15:12:08.732Z,98484.00
2022-09-30T15:14:48.502Z,98483.19
2022-09-30T15:17:21.747Z,98486.72
2022-09-30T15:19:50.937Z,98492.63
2022-09-30T15:22:22.024Z,98487.25
2022-09-30T15:24:54.449Z,98497.75
2022-09-30T15:27:28.378Z,98496.97
2022-09-30T15:29:57.860Z,98493.72
2022-09-30T15:32:30.573Z,98501.25
2022-09-30T15:35:00.100Z,98500.19
2022-09-30T15:37:33.800Z,98493.44
2022-09-30T15:40:23.138Z,98500.72
2022-09-30T15:43:01.391Z,98502.59
2022-09-30T15:45:35.807Z,98502.88
2022-09-30T15:48:08.889Z,98508.78
2022-09-30T15:50:43.729Z,98507.72
2022-09-30T15:53:24.906Z,98513.66
2022-09-30T15:55:57.590Z,98514.19
2022-09-30T15:58:39.063Z,98512.56
2022-09-30T16:01:21.498Z,98511.47
2022-09-30T16:03:55.682Z,98512.03
2022-09-30T16:06:35.370Z,98510.44
2022-09-30T16:09:09.523Z,98510.44
2022-09-30T16:11:44.567Z,98508.78
2022-09-30T16:14:26.997Z,98515.25
2022-09-30T16:17:00.474Z,98510.44
2022-09-30T16:19:32.534Z,98505.56
2022-09-30T16:22:01.945Z,98507.72
2022-09-30T16:24:50.503Z,98511.22
2022-09-30T16:27:32.854Z,98509.88
2022-09-30T16:30:02.870Z,98509.88
2022-09-30T16:32:41.451Z,98520.63
2022-09-30T16:35:19.701Z,98520.59
2022-09-30T16:37:49.648Z,98531.31
2022-09-30T16:40:24.384Z,98521.63
2022-09-30T16:42:56.014Z,98531.84
2022-09-30T16:45:24.972Z,98528.88
2022-09-30T16:47:54.045Z,98530.22
2022-09-30T16:50:32.567Z,98536.09
2022-09-30T16:53:01.534Z,98537.66
2022-09-30T16:55:31.528Z,98536.28
2022-09-30T16:58:04.692Z,98546.50
2022-09-30T17:00:33.907Z,98548.88
2022-09-30T17:03:02.616Z,98542.13
2022-09-30T17:05:31.414Z,98544.03
2022-09-30T17:08:01.433Z,98550.44
2022-09-30T17:10:35.278Z,98552.00
2022-09-30T17:13:06.207Z,98554.13
2022-09-30T17:15:36.251Z,98547.38
2022-09-30T17:18:09.393Z,98551.09
2022-09-30T17:20:43.198Z,98556.19
2022-09-30T17:23:13.350Z,98565.28
2022-09-30T17:25:43.086Z,98572.47
2022-09-30T17:28:14.803Z,98561.97
2022-09-30T17:30:46.650Z,98568.34
2022-09-30T17:33:15.822Z,98570.19
2022-09-30T17:35:44.517Z,98563.47
2022-09-30T17:38:14.691Z,98568.84
2022-09-30T17:41:00.427Z,98564.00
2022-09-30T17:43:31.674Z,98565.41
2022-09-30T17:46:01.179Z,98566.78
2022-09-30T17:48:30.041Z,98567.34
2022-09-30T17:51:00.106Z,98561.31
2022-09-30T17:53:29.461Z,98560.16
2022-09-30T17:56:06.763Z,98555.91
2022-09-30T17:58:37.238Z,98554.88
2022-09-30T18:01:08.480Z,98558.94
2022-09-30T18:03:37.716Z,98556.22
2022-09-30T18:06:06.719Z,98556.44
2022-09-30T18:08:36.045Z,98559.66
2022-09-30T18:11:07.540Z,98550.03
2022-09-30T18:13:37.838Z,98561.59
2022-09-30T18:16:08.405Z,98560.78
2022-09-30T18:18:37.397Z,98558.28
2022-09-30T18:21:06.576Z,98560.44
2022-09-30T18:23:35.352Z,98566.28
2022-09-30T18:26:04.400Z,98566.50
2022-09-30T18:28:33.301Z,98566.69
2022-09-30T18:31:09.834Z,98563.75
2022-09-30T18:33:39.643Z,98564.22
2022-09-30T18:36:10.463Z,98563.97
2022-09-30T18:38:42.237Z,98567.28
2022-09-30T18:41:12.835Z,98569.78
2022-09-30T18:43:45.399Z,98573.75
2022-09-30T18:46:16.458Z,98572.09
2022-09-30T18:48:50.456Z,98563.81
2022-09-30T18:51:20.425Z,98569.06
2022-09-30T18:53:56.244Z,98575.38
2022-09-30T18:56:27.623Z,98570.44
2022-09-30T18:58:58.150Z,98570.44
2022-09-30T19:01:29.117Z,98573.56
2022-09-30T19:04:01.365Z,98569.19
2022-09-30T19:06:33.829Z,98570.31
2022-09-30T19:09:03.073Z,98567.91
2022-09-30T19:11:33.566Z,98572.44
2022-09-30T19:14:03.870Z,98565.50
2022-09-30T19:16:38.618Z,98564.06
2022-09-30T19:19:11.675Z,98575.28
2022-09-30T19:21:41.328Z,98571.22
2022-09-30T19:24:11.898Z,98566.34
2022-09-30T19:26:41.070Z,98559.72
2022-09-30T19:29:12.137Z,98559.72
2022-09-30T19:31:46.941Z,98554.03
2022-09-30T19:34:27.598Z,98551.94
2022-09-30T19:37:00.088Z,98550.19
2022-09-30T19:39:44.011Z,98554.13
2022-09-30T19:42:19.401Z,98551.06
2022-09-30T19:44:52.100Z,98552.59
2022-09-30T19:47:22.924Z,98553.09
2022-09-30T19:49:52.218Z,98551.72
2022-09-30T19:52:22.422Z,98555.06
2022-09-30T19:55:03.879Z,98550.44
2022-09-30T19:57:37.689Z,98548.94
2022-09-30T20:00:09.050Z,98555.81
2022-09-30T20:02:40.319Z,98557.94
2022-09-30T20:05:10.747Z,98553.63
2022-09-30T20:07:40.315Z,98553.16
2022-09-30T20:10:10.758Z,98561.44
2022-09-30T20:12:41.198Z,98557.44
2022-09-30T20:15:29.838Z,98556.69
2022-09-30T20:18:00.116Z,98557.09
2022-09-30T20:20:38.520Z,98555.94
2022-09-30T20:23:08.445Z,98553.78
2022-09-30T20:25:44.387Z,98559.19
2022-09-30T20:28:13.831Z,98557.72
2022-09-30T20:30:50.652Z,98560.41
2022-09-30T20:33:24.766Z,98555.63
2022-09-30T20:35:54.100Z,98558.53
2022-09-30T20:38:25.581Z,98558.84
2022-09-30T20:40:58.797Z,98568.38
2022-09-30T20:43:30.159Z,98563.63
2022-09-30T20:46:02.263Z,98566.19
2022-09-30T20:48:36.212Z,98566.44
2022-09-30T20:51:07.246Z,98574.59
2022-09-30T20:53:39.807Z,98575.47
2022-09-30T20:56:10.857Z,98572.38
2022-09-30T20:58:42.324Z,98574.97
2022-09-30T21:01:14.173Z,98589.88
2022-09-30T21:03:48.256Z,98586.59
2022-09-30T21:06:18.332Z,98588.47
2022-09-30T21:08:47.829Z,98593.38
2022-09-30T21:11:16.959Z,98590.91
2022-09-30T21:13:47.457Z,98591.75
2022-09-30T21:16:20.624Z,98591.16
2022-09-30T21:18:52.663Z,98586.06
2022-09-30T21:21:24.925Z,98592.22
2022-09-30T21:23:57.577Z,98587.69
2022-09-30T21:26:26.773Z,98590.88
2022-09-30T21:28:57.434Z,98582.81
2022-09-30T21:31:28.052Z,98589.91
2022-09-30T21:33:59.985Z,98582.84
2022-09-30T21:36:32.375Z,98582.97
2022-09-30T21:39:04.495Z,98590.50
2022-09-30T21:41:34.573Z,98590.50
2022-09-30T21:44:04.471Z,98594.47
2022-09-30T21:46:34.825Z,98583.78
2022-09-30T21:49:16.609Z,98589.00
2022-09-30T21:51:45.848Z,98577.38
2022-09-30T21:54:15.115Z,98579.72
2022-09-30T21:56:48.640Z,98585.88
2022-09-30T21:59:18.006Z,98581.34
2022-09-30T22:01:47.909Z,98576.84
2022-09-30T22:04:19.655Z,98580.31
2022-09-30T22:06:53.257Z,98581.59
2022-09-30T22:09:22.275Z,98578.34
2022-09-30T22:11:55.036Z,98571.25
2022-09-30T22:14:23.738Z,98571.97
2022-09-30T22:16:55.901Z,98577.53
2022-09-30T22:19:26.104Z,98582.63
2022-09-30T22:21:54.926Z,98581.03
2022-09-30T22:24:24.090Z,98576.38
2022-09-30T22:26:53.027Z,98582.19
2022-09-30T22:29:21.873Z,98586.84
2022-09-30T22:31:50.647Z,98584.38
2022-09-30T22:34:37.232Z,98585.53
2022-09-30T22:37:24.772Z,98579.41
2022-09-30T22:39:56.282Z,98582.50
2022-09-30T22:42:29.314Z,98583.44
2022-09-30T22:44:58.170Z,98585.41
2022-09-30T22:47:26.882Z,98587.84
2022-09-30T22:49:55.545Z,98587.28
2022-09-30T22:52:25.551Z,98592.38
2022-09-30T22:54:54.361Z,98597.25
2022-09-30T22:57:23.003Z,98594.00
2022-09-30T22:59:52.939Z,98594.47
2022-09-30T23:02:22.754Z,98594.31
2022-09-30T23:04:51.718Z,98598.50
2022-09-30T23:07:20.334Z,98597.19
2022-09-30T23:09:50.417Z,98601.16
2022-09-30T23:12:19.090Z,98599.84
2022-09-30T23:14:47.750Z,98601.03
2022-09-30T23:17:16.327Z,98598.22
2022-09-30T23:19:44.948Z,98603.19
2022-09-30T23:22:13.671Z,98594.38
2022-09-30T23:24:42.323Z,98608.53
2022-09-30T23:27:12.367Z,98604.81
2022-09-30T23:29:41.005Z,98603.56
2022-09-30T23:32:09.827Z,98605.00
2022-09-30T23:34:38.549Z,98605.38
2022-09-30T23:37:07.159Z,98600.41
2022-09-30T23:39:35.771Z,98602.97
2022-09-30T23:42:04.582Z,98603.66
2022-09-30T23:44:34.686Z,98594.25
2022-09-30T23:47:22.194Z,98599.56
2022-09-30T23:49:51.072Z,98602.00
2022-09-30T23:52:19.742Z,98598.53
2022-09-30T23:54:48.330Z,98595.63
2022-09-30T23:57:17.001Z,98601.66
2022-09-30T23:59:47.076Z,98605.97
